createdAt,value
2019-03-23T10:38:19.090Z,73.61
2019-03-23T10:39:19.054Z,73.71
2019-03-23T10:40:19.042Z,73.50
2019-03-23T10:41:19.036Z,73.71
2019-03-23T10:42:19.013Z,73.40
2019-03-23T10:43:19.023Z,73.68
2019-03-23T10:44:19.009Z,74.29
2019-03-23T10:45:18.978Z,73.57
2019-03-23T10:46:18.975Z,73.40
2019-03-23T10:47:18.991Z,73.61
2019-03-23T10:48:18.933Z,72.99
2019-03-23T10:49:18.949Z,73.61
2019-03-23T10:50:18.923Z,73.20
2019-03-23T10:51:18.921Z,73.40
2019-03-23T10:52:18.890Z,73.98
2019-03-23T10:53:23.085Z,73.81
2019-03-23T10:54:19.056Z,73.30
2019-03-23T10:55:19.070Z,74.02
2019-03-23T10:56:18.844Z,74.43
2019-03-23T10:57:18.841Z,74.32
2019-03-23T10:58:18.821Z,74.02
2019-03-23T10:59:18.853Z,74.11
2019-03-23T11:00:18.816Z,74.29
2019-03-23T11:01:18.796Z,73.27
2019-03-23T11:02:18.780Z,72.82
2019-03-23T11:03:18.785Z,71.91
2019-03-23T11:04:18.795Z,72.92
2019-03-23T11:05:18.747Z,72.89
2019-03-23T11:06:18.733Z,72.48
2019-03-23T11:07:18.739Z,71.97
2019-03-23T11:08:18.738Z,72.04
2019-03-23T11:09:18.735Z,73.16
2019-03-23T11:10:18.695Z,73.27
2019-03-23T11:11:18.680Z,72.04
2019-03-23T11:12:18.668Z,71.80
2019-03-23T11:13:18.655Z,71.50
2019-03-23T11:14:18.680Z,71.29
2019-03-23T11:15:18.633Z,70.27
2019-03-23T11:16:18.620Z,70.68
2019-03-23T11:17:18.609Z,71.60
2019-03-23T11:18:18.613Z,71.29
2019-03-23T11:19:18.595Z,71.60
2019-03-23T11:20:18.697Z,69.93
2019-03-23T11:21:18.568Z,71.15
2019-03-23T11:22:18.556Z,70.82
2019-03-23T11:23:18.545Z,69.39
2019-03-23T11:24:18.534Z,69.59
2019-03-23T11:25:18.534Z,70.51
2019-03-23T11:26:18.552Z,70.00
2019-03-23T11:27:18.498Z,69.70
2019-03-23T11:28:18.488Z,70.00
2019-03-23T11:29:18.505Z,70.00
2019-03-23T11:30:18.470Z,70.31
2019-03-23T11:31:18.486Z,70.10
2019-03-23T11:32:18.450Z,70.31
2019-03-23T11:33:18.430Z,69.39
2019-03-23T11:34:18.428Z,70.14
2019-03-23T11:35:18.534Z,70.54
2019-03-23T11:36:18.414Z,70.04
2019-03-23T11:37:18.541Z,70.00
2019-03-23T11:38:18.375Z,70.04
2019-03-23T11:39:18.371Z,69.73
2019-03-23T11:40:18.395Z,70.14
2019-03-23T11:41:18.355Z,69.90
2019-03-23T11:42:18.356Z,70.04
2019-03-23T11:43:18.324Z,70.00
2019-03-23T11:44:18.310Z,69.59
2019-03-23T11:45:18.334Z,70.00
2019-03-23T11:46:18.295Z,70.54
2019-03-23T11:47:18.283Z,70.61
2019-03-23T11:48:18.263Z,70.21
2019-03-23T11:49:18.254Z,70.61
2019-03-23T11:50:18.243Z,70.89
2019-03-23T11:51:18.257Z,69.29
2019-03-23T11:52:18.220Z,70.38
2019-03-23T11:54:19.310Z,70.28
2019-03-23T11:55:18.187Z,69.26
2019-03-23T11:56:18.201Z,69.56
2019-03-23T11:57:18.201Z,69.06
2019-03-23T11:58:18.153Z,68.85
2019-03-23T11:59:18.153Z,69.56
2019-03-23T12:00:18.135Z,69.15
2019-03-23T12:01:18.145Z,68.62
2019-03-23T12:02:18.104Z,69.36
2019-03-23T12:03:18.103Z,68.85
2019-03-23T12:04:18.100Z,69.53
2019-03-23T12:05:18.078Z,67.80
2019-03-23T12:06:18.519Z,68.71
2019-03-23T12:07:18.072Z,67.69
2019-03-23T12:08:18.429Z,68.41
2019-03-23T12:09:18.029Z,67.19
2019-03-23T12:10:18.031Z,68.68
2019-03-23T12:11:18.008Z,69.09
2019-03-23T12:12:18.023Z,68.58
2019-03-23T12:13:17.985Z,68.27
2019-03-23T12:14:17.985Z,68.68
2019-03-23T12:15:17.972Z,67.66
2019-03-23T12:16:17.979Z,68.58
2019-03-23T12:17:17.947Z,68.99
2019-03-23T12:18:17.926Z,67.66
2019-03-23T12:19:17.928Z,67.66
2019-03-23T12:20:17.909Z,67.66
2019-03-23T12:21:18.062Z,67.74
2019-03-23T12:22:17.889Z,67.77
2019-03-23T12:23:17.929Z,67.46
2019-03-23T12:24:17.860Z,68.18
2019-03-23T12:25:17.860Z,67.77
2019-03-23T12:26:17.871Z,68.71
2019-03-23T12:27:17.835Z,68.71
2019-03-23T12:28:17.850Z,68.51
2019-03-23T12:29:17.810Z,68.62
2019-03-23T12:30:17.796Z,68.68
2019-03-23T12:31:17.840Z,68.48
2019-03-23T12:32:17.812Z,68.27
2019-03-23T12:33:17.803Z,68.48
2019-03-23T12:34:17.931Z,68.27
2019-03-23T12:35:17.737Z,68.68
2019-03-23T12:36:17.728Z,68.88
